Val-Brillant, Canada
Current Conditions -  °F | °C
As of 3:00 PM on Monday 24 Nov 2014 (Local Time) from CYYY Reporting Station
Light Rain Light Rain  
Wind Chill: 38°   Ceiling: 5500
Heat Index: 46°   Visibility: 15mi
Dew Point: 43°   Wind: 24mph
Humidity: 87%   Direction: 160°SSE
Pressure: 29.42"   Gusts: 41mph
Location:  48.53°N, 67.57°W
Report Text: CYYY 242000Z 16021G36KT 15SM -RA SCT030 BKN055 08/06 A2942 RMK SC3SC4 SLP963
Loading
Personal Weather Stations






























Interactive Weather Map New forecast layout! Learn more

10-Day Weather Forecast

Advertisements
Track Severe Weather on mobile